sensor_id;sensor_type;location;lat;lon;timestamp;P1;durP1;ratioP1;P2;durP2;ratioP2
35803;SDS011;21924;51.934;7.414;2023-06-01T12:20:02;9.40;;;5.72;;
35803;SDS011;21924;51.934;7.414;2023-06-01T12:22:50;11.95;;;6.47;;
35803;SDS011;21924;51.934;7.414;2023-06-01T12:25:35;14.02;;;5.53;;
35803;SDS011;21924;51.934;7.414;2023-06-01T12:28:19;8.15;;;5.68;;
35803;SDS011;21924;51.934;7.414;2023-06-01T12:31:11;9.15;;;5.93;;
35803;SDS011;21924;51.934;7.414;2023-06-01T12:33:56;9.30;;;5.38;;
35803;SDS011;21924;51.934;7.414;2023-06-01T12:36:40;9.55;;;5.60;;
35803;SDS011;21924;51.934;7.414;2023-06-01T12:39:34;7.50;;;4.88;;
35803;SDS011;21924;51.934;7.414;2023-06-01T12:42:37;10.55;;;4.75;;
35803;SDS011;21924;51.934;7.414;2023-06-01T12:45:22;6.90;;;3.95;;
35803;SDS011;21924;51.934;7.414;2023-06-01T12:48:07;8.95;;;4.75;;
35803;SDS011;21924;51.934;7.414;2023-06-01T13:04:33;7.70;;;3.35;;
35803;SDS011;21924;51.934;7.414;2023-06-01T13:07:18;7.00;;;3.08;;
35803;SDS011;21924;51.934;7.414;2023-06-01T13:10:06;6.05;;;3.40;;
35803;SDS011;21924;51.934;7.414;2023-06-01T13:15:38;6.05;;;3.47;;
35803;SDS011;21924;51.934;7.414;2023-06-01T13:18:23;5.82;;;3.65;;
35803;SDS011;21924;51.934;7.414;2023-06-01T13:21:07;4.90;;;3.17;;
35803;SDS011;21924;51.934;7.414;2023-06-01T13:23:52;6.07;;;3.40;;
35803;SDS011;21924;51.934;7.414;2023-06-01T13:26:36;4.07;;;2.53;;
35803;SDS011;21924;51.934;7.414;2023-06-01T13:29:21;8.05;;;3.35;;
35803;SDS011;21924;51.934;7.414;2023-06-01T13:32:06;3.20;;;2.33;;
35803;SDS011;21924;51.934;7.414;2023-06-01T13:34:51;5.68;;;2.92;;
35803;SDS011;21924;51.934;7.414;2023-06-01T13:37:37;4.28;;;2.85;;
35803;SDS011;21924;51.934;7.414;2023-06-01T13:40:22;5.18;;;3.35;;
35803;SDS011;21924;51.934;7.414;2023-06-01T13:43:06;4.88;;;3.13;;
35803;SDS011;21924;51.934;7.414;2023-06-01T13:45:51;5.68;;;3.15;;
35803;SDS011;21924;51.934;7.414;2023-06-01T13:48:36;4.63;;;2.75;;
35803;SDS011;21924;51.934;7.414;2023-06-01T13:51:20;5.60;;;3.10;;
35803;SDS011;21924;51.934;7.414;2023-06-01T13:54:06;9.52;;;3.35;;
35803;SDS011;21924;51.934;7.414;2023-06-01T13:56:51;11.52;;;3.55;;
35803;SDS011;21924;51.934;7.414;2023-06-01T13:59:35;6.22;;;3.42;;
35803;SDS011;21924;51.934;7.414;2023-06-01T14:02:20;4.93;;;2.80;;
35803;SDS011;21924;51.934;7.414;2023-06-01T14:05:04;5.00;;;3.20;;
35803;SDS011;21924;51.934;7.414;2023-06-01T14:07:49;4.55;;;2.88;;
35803;SDS011;21924;51.934;7.414;2023-06-01T14:10:33;8.05;;;3.17;;
35803;SDS011;21924;51.934;7.414;2023-06-01T14:13:18;6.13;;;3.10;;
35803;SDS011;21924;51.934;7.414;2023-06-01T14:16:02;5.68;;;3.50;;
35803;SDS011;21924;51.934;7.414;2023-06-01T14:18:47;4.85;;;2.80;;
35803;SDS011;21924;51.934;7.414;2023-06-01T14:21:31;4.28;;;2.35;;
35803;SDS011;21924;51.934;7.414;2023-06-01T14:24:15;7.67;;;2.73;;
35803;SDS011;21924;51.934;7.414;2023-06-01T14:27:00;5.55;;;2.83;;
35803;SDS011;21924;51.934;7.414;2023-06-01T14:29:44;4.40;;;2.92;;
35803;SDS011;21924;51.934;7.414;2023-06-01T14:32:28;2.92;;;2.03;;
35803;SDS011;21924;51.934;7.414;2023-06-01T14:35:13;6.83;;;3.20;;
35803;SDS011;21924;51.934;7.414;2023-06-01T14:37:59;4.30;;;3.05;;
35803;SDS011;21924;51.934;7.414;2023-06-01T14:40:44;3.33;;;2.65;;
35803;SDS011;21924;51.934;7.414;2023-06-01T14:43:28;4.90;;;2.70;;
35803;SDS011;21924;51.934;7.414;2023-06-01T14:46:13;5.53;;;2.60;;
35803;SDS011;21924;51.934;7.414;2023-06-01T14:48:58;4.72;;;2.67;;
35803;SDS011;21924;51.934;7.414;2023-06-01T14:51:46;4.63;;;2.42;;
35803;SDS011;21924;51.934;7.414;2023-06-01T14:54:30;4.43;;;2.47;;
35803;SDS011;21924;51.934;7.414;2023-06-01T14:57:15;4.05;;;2.50;;
35803;SDS011;21924;51.934;7.414;2023-06-01T14:59:59;4.95;;;2.67;;
35803;SDS011;21924;51.934;7.414;2023-06-01T15:02:44;6.13;;;2.67;;
35803;SDS011;21924;51.934;7.414;2023-06-01T15:05:29;6.25;;;2.85;;
35803;SDS011;21924;51.934;7.414;2023-06-01T15:08:13;5.78;;;2.90;;
35803;SDS011;21924;51.934;7.414;2023-06-01T15:10:58;3.40;;;2.55;;
35803;SDS011;21924;51.934;7.414;2023-06-01T15:13:42;5.40;;;3.10;;
35803;SDS011;21924;51.934;7.414;2023-06-01T15:16:27;7.72;;;3.42;;
35803;SDS011;21924;51.934;7.414;2023-06-01T15:19:11;5.93;;;2.70;;
35803;SDS011;21924;51.934;7.414;2023-06-01T15:21:55;4.95;;;2.75;;
35803;SDS011;21924;51.934;7.414;2023-06-01T15:24:40;5.32;;;2.75;;
35803;SDS011;21924;51.934;7.414;2023-06-01T15:27:25;4.95;;;3.05;;
35803;SDS011;21924;51.934;7.414;2023-06-01T15:30:09;5.90;;;2.50;;
35803;SDS011;21924;51.934;7.414;2023-06-01T15:32:54;5.20;;;3.28;;
35803;SDS011;21924;51.934;7.414;2023-06-01T15:35:38;3.55;;;2.42;;
35803;SDS011;21924;51.934;7.414;2023-06-01T15:38:22;4.93;;;3.10;;
35803;SDS011;21924;51.934;7.414;2023-06-01T15:41:07;4.68;;;3.20;;
35803;SDS011;21924;51.934;7.414;2023-06-01T15:43:51;6.05;;;3.28;;
35803;SDS011;21924;51.934;7.414;2023-06-01T15:46:35;4.88;;;3.22;;
35803;SDS011;21924;51.934;7.414;2023-06-01T15:49:19;5.57;;;3.53;;
35803;SDS011;21924;51.934;7.414;2023-06-01T15:52:04;7.90;;;4.22;;
35803;SDS011;21924;51.934;7.414;2023-06-01T15:54:48;8.98;;;4.55;;
35803;SDS011;21924;51.934;7.414;2023-06-01T15:57:33;7.80;;;4.45;;
35803;SDS011;21924;51.934;7.414;2023-06-01T16:00:17;8.82;;;4.45;;
35803;SDS011;21924;51.934;7.414;2023-06-01T16:03:01;7.22;;;4.43;;
35803;SDS011;21924;51.934;7.414;2023-06-01T16:05:46;9.50;;;5.00;;
35803;SDS011;21924;51.934;7.414;2023-06-01T16:08:30;9.27;;;4.82;;
35803;SDS011;21924;51.934;7.414;2023-06-01T16:11:14;9.27;;;4.50;;
35803;SDS011;21924;51.934;7.414;2023-06-01T16:13:59;11.32;;;4.80;;
35803;SDS011;21924;51.934;7.414;2023-06-01T16:16:43;9.25;;;4.53;;
35803;SDS011;21924;51.934;7.414;2023-06-01T16:19:27;10.70;;;4.50;;
35803;SDS011;21924;51.934;7.414;2023-06-01T16:22:12;10.20;;;4.45;;
35803;SDS011;21924;51.934;7.414;2023-06-01T16:24:56;9.82;;;4.82;;
35803;SDS011;21924;51.934;7.414;2023-06-01T16:27:40;10.80;;;5.20;;
35803;SDS011;21924;51.934;7.414;2023-06-01T16:30:24;10.52;;;4.30;;
35803;SDS011;21924;51.934;7.414;2023-06-01T16:33:09;7.88;;;4.40;;
35803;SDS011;21924;51.934;7.414;2023-06-01T16:35:54;9.80;;;4.30;;
35803;SDS011;21924;51.934;7.414;2023-06-01T16:38:38;10.73;;;4.37;;
35803;SDS011;21924;51.934;7.414;2023-06-01T16:41:22;10.35;;;4.70;;
35803;SDS011;21924;51.934;7.414;2023-06-01T16:44:07;11.47;;;4.53;;
35803;SDS011;21924;51.934;7.414;2023-06-01T16:46:51;10.50;;;5.07;;
35803;SDS011;21924;51.934;7.414;2023-06-01T16:49:36;10.70;;;4.65;;
35803;SDS011;21924;51.934;7.414;2023-06-01T16:52:20;10.48;;;4.68;;
35803;SDS011;21924;51.934;7.414;2023-06-01T16:55:05;9.35;;;4.55;;
35803;SDS011;21924;51.934;7.414;2023-06-01T16:57:49;10.48;;;5.00;;
35803;SDS011;21924;51.934;7.414;2023-06-01T17:00:34;8.32;;;4.22;;
35803;SDS011;21924;51.934;7.414;2023-06-01T17:03:18;9.65;;;4.10;;
35803;SDS011;21924;51.934;7.414;2023-06-01T17:06:02;8.40;;;3.95;;
35803;SDS011;21924;51.934;7.414;2023-06-01T17:08:47;12.82;;;4.00;;
35803;SDS011;21924;51.934;7.414;2023-06-01T17:11:31;8.10;;;3.63;;
35803;SDS011;21924;51.934;7.414;2023-06-01T17:14:15;8.02;;;3.42;;
35803;SDS011;21924;51.934;7.414;2023-06-01T17:16:59;9.80;;;3.28;;
35803;SDS011;21924;51.934;7.414;2023-06-01T17:19:44;9.97;;;3.50;;
35803;SDS011;21924;51.934;7.414;2023-06-01T17:22:28;7.03;;;3.22;;
35803;SDS011;21924;51.934;7.414;2023-06-01T17:25:12;7.60;;;3.03;;
35803;SDS011;21924;51.934;7.414;2023-06-01T17:27:56;8.43;;;3.10;;
35803;SDS011;21924;51.934;7.414;2023-06-01T17:30:41;9.25;;;3.10;;
35803;SDS011;21924;51.934;7.414;2023-06-01T17:33:26;7.88;;;3.22;;
35803;SDS011;21924;51.934;7.414;2023-06-01T17:36:10;9.32;;;3.28;;
35803;SDS011;21924;51.934;7.414;2023-06-01T17:38:54;11.97;;;3.30;;
35803;SDS011;21924;51.934;7.414;2023-06-01T17:41:38;7.47;;;2.97;;
35803;SDS011;21924;51.934;7.414;2023-06-01T17:44:26;7.78;;;3.10;;
35803;SDS011;21924;51.934;7.414;2023-06-01T17:47:11;9.02;;;3.22;;
35803;SDS011;21924;51.934;7.414;2023-06-01T17:49:55;7.90;;;3.10;;
35803;SDS011;21924;51.934;7.414;2023-06-01T17:52:39;6.63;;;3.13;;
35803;SDS011;21924;51.934;7.414;2023-06-01T17:55:24;7.38;;;3.22;;
35803;SDS011;21924;51.934;7.414;2023-06-01T17:58:08;7.20;;;3.53;;
35803;SDS011;21924;51.934;7.414;2023-06-01T18:00:52;9.23;;;3.05;;
35803;SDS011;21924;51.934;7.414;2023-06-01T18:03:37;7.70;;;3.08;;
35803;SDS011;21924;51.934;7.414;2023-06-01T18:06:21;8.43;;;3.38;;
35803;SDS011;21924;51.934;7.414;2023-06-01T18:09:05;7.93;;;3.45;;
35803;SDS011;21924;51.934;7.414;2023-06-01T18:11:50;8.52;;;3.22;;
35803;SDS011;21924;51.934;7.414;2023-06-01T18:14:34;10.05;;;3.55;;
35803;SDS011;21924;51.934;7.414;2023-06-01T18:17:18;7.35;;;3.50;;
35803;SDS011;21924;51.934;7.414;2023-06-01T18:20:03;9.25;;;3.13;;
35803;SDS011;21924;51.934;7.414;2023-06-01T18:22:49;9.05;;;3.55;;
35803;SDS011;21924;51.934;7.414;2023-06-01T18:25:33;9.02;;;3.53;;
35803;SDS011;21924;51.934;7.414;2023-06-01T18:28:18;7.78;;;3.35;;
35803;SDS011;21924;51.934;7.414;2023-06-01T18:31:02;9.85;;;4.10;;
35803;SDS011;21924;51.934;7.414;2023-06-01T18:33:46;11.00;;;3.45;;
35803;SDS011;21924;51.934;7.414;2023-06-01T18:36:31;7.23;;;3.20;;
35803;SDS011;21924;51.934;7.414;2023-06-01T18:39:15;8.75;;;3.40;;
35803;SDS011;21924;51.934;7.414;2023-06-01T18:41:59;11.70;;;3.45;;
35803;SDS011;21924;51.934;7.414;2023-06-01T18:44:44;11.30;;;3.60;;
35803;SDS011;21924;51.934;7.414;2023-06-01T18:47:28;8.88;;;3.30;;
35803;SDS011;21924;51.934;7.414;2023-06-01T18:50:12;10.80;;;3.70;;
35803;SDS011;21924;51.934;7.414;2023-06-01T18:52:57;8.80;;;3.80;;
35803;SDS011;21924;51.934;7.414;2023-06-01T18:55:41;10.30;;;3.70;;
35803;SDS011;21924;51.934;7.414;2023-06-01T18:58:27;6.28;;;3.28;;
